Neosho, MO

6:32 AM CDT on July 25, 2014 (GMT -0500)
Rolling Meadows (KMONEOSH2) Elev 0 ft | 36.87 °N, 94.41 °W | Change Station

Current weather conditions updated 131 days ago

Clear
Clear
66 °F
Feels Like 66 °F
N
8
Wind Variable Wind from South
Gusts 11 mph

Today is forecast to be Much Warmer than yesterday. Isolated thunderstorms tomorrow night.

Today
High -- | Low -- °F
--% Chance of Precip.
Yesterday
High -- | Low -- °F
Precip. -- in
6:17 AM 8:30 PM
Waning Crescent, 2% visible
Pressure 30.00 in
Visibility 10.0 miles
Clouds Clear
Dew Point 63 °F
Humidity 87%
Rainfall 0.00 in
Snow Depth Not available.
UV 0 out of 12
Pollen 5.40 out of 12
Air Quality Not available.
Flu Activity Not available.
METAR KHFJ 251115Z AUTO 15006KT 10SM CLR 19/18 A3000 RMK AO2

More Conditions Fewer Conditions

Pressure 30.00 in
Visibility 10.0 miles
Clouds Clear
Dew Point 63 °F
Humidity 87%
Rainfall 0.00 in
Snow Depth Not available.
UV 0 out of 12
Pollen 5.40 out of 12
Air Quality Not available.
Flu Activity Not available.
METAR KHFJ 251115Z AUTO 15006KT 10SM CLR 19/18 A3000 RMK AO2

More Conditions Fewer Conditions

10-Day Weather Forecast

Almanac

Astronomy

Jul. 25, 2014 Rise Set
Actual Time 6:17 AM CDT 8:30 PM CDT
Civil Twilight 5:48 AM CDT 8:59 PM CDT
Nautical Twilight 5:12 AM CDT 9:35 PM CDT
Astronomical Twilight 4:33 AM CDT 10:13 PM CDT
Moon 5:16 AM CDT 7:29 PM CDT
Length of Visible Light 15h 11m
Length of Day
14h 12m
Tomorrow will be 1m 34s shorter.
Waning Crescent, 2% of the Moon is Illuminated
Today
Waning Crescent
Jul 26
New
Aug 3
First Quarter
Aug 10
Full
Aug 17
Last Quarter

Today's Extremes

State Highs State Lows

Community

WunderPhotos

Upload Photos

1,737,289 photos uploaded!

Nearby

Snow Depth

Station Depth Elevation
No new snow has been reported.

Earthquake Activity

City Distance Mag. Time & Date
No recent earthquake activity has been reported nearby.
Minimum magnitude displayed is 2.5.

Coastal Water Temperatures

Place Temperature
No Stations Reporting

Nearby Weather Stations

Station Location Temp. Dew Point Humidity Wind Precip. Elev Updated Type
South east of Granby, Granby, MO 68.5 °F 66 °F 91% SSE  at  5.8 mph 0.00 in / hr 1217 ft 6:32 AM CDT Rapid Fire
Mohaska, Joplin, MO 71.7 °F 68 °F 88% SSE  at  1.0 mph 0.00 in / hr 1010 ft 6:31 AM CDT Normal
Farm Road 2100, Wheaton, MO 68.5 °F 67 °F 95% SSW  at  5.0 mph 0.00 in / hr 1335 ft 6:32 AM CDT Rapid Fire
Monett, MO 66.7 °F 65 °F 94% ESE  at  3.2 mph 0.00 in / hr 1306 ft 6:31 AM CDT Normal

Show More Stations Show Fewer Stations